Time;durP1;ratioP1;P1;durP2;ratioP2;P2;SDS_P1;SDS_P2;PMS_P1;PMS_P2;Temp;Humidity;BMP_temperature;BMP_pressure;BME280_temperature;BME280_humidity;BME280_pressure;Samples;Min_cycle;Max_cycle;Signal;HPM_P1;HPM_P2
2023/10/29 00:04:35;;;;;;;13.23;5.40;;;10.20;99.90;;;;;;6307420;22;20018;-87
2023/10/29 00:07:02;;;;;;;11.55;5.10;;;12.00;99.90;;;;;;6307919;22;20342;-87
2023/10/29 00:09:28;;;;;;;13.73;5.68;;;10.80;99.90;;;;;;6278926;22;20015;-87
2023/10/29 00:12:06;;;;;;;12.48;5.50;;;12.10;99.90;;;;;;6282759;22;20015;-87
2023/10/29 00:14:32;;;;;;;12.15;5.65;;;10.80;99.90;;;;;;6293261;22;20461;-87
2023/10/29 00:16:58;;;;;;;12.50;5.60;;;11.30;99.90;;;;;;6299865;22;20023;-89
2023/10/29 00:19:24;;;;;;;11.27;5.18;;;11.60;99.90;;;;;;6279520;22;20389;-87
2023/10/29 00:21:49;;;;;;;12.02;5.43;;;12.10;99.90;;;;;;6278486;22;20106;-88
2023/10/29 00:24:46;;;;;;;11.50;5.07;;;12.30;99.90;;;;;;6277084;22;20377;-88
2023/10/29 00:27:12;;;;;;;11.10;5.20;;;10.20;99.90;;;;;;6279038;22;20443;-87
2023/10/29 00:29:38;;;;;;;11.63;5.35;;;12.30;99.90;;;;;;6278609;22;20011;-88
2023/10/29 00:32:04;;;;;;;12.32;5.25;;;11.50;99.90;;;;;;6280075;22;20101;-87
2023/10/29 00:34:29;;;;;;;17.67;5.70;;;10.90;99.90;;;;;;6279082;22;20013;-87
2023/10/29 00:36:55;;;;;;;11.32;4.95;;;11.60;99.90;;;;;;6278638;22;20143;-87
2023/10/29 00:39:21;;;;;;;13.68;5.43;;;12.20;99.90;;;;;;6306432;22;20046;-87
2023/10/29 00:41:46;;;;;;;12.68;5.80;;;12.30;99.90;;;;;;6278205;22;20022;-87
2023/10/29 00:44:12;;;;;;;14.45;5.30;;;11.90;99.90;;;;;;6279036;22;20011;-88
2023/10/29 00:46:40;;;;;;;11.20;5.15;;;11.10;99.90;;;;;;6279813;22;20008;-88
2023/10/29 00:49:06;;;;;;;11.40;5.53;;;11.00;99.90;;;;;;6278301;22;20015;-88
2023/10/29 00:51:32;;;;;;;13.27;6.18;;;11.70;99.90;;;;;;6278988;22;20030;-88
2023/10/29 00:53:58;;;;;;;12.10;5.50;;;11.60;99.90;;;;;;6307216;22;20015;-87
2023/10/29 00:56:24;;;;;;;11.00;5.57;;;11.00;99.90;;;;;;6278447;22;20070;-87
2023/10/29 00:58:51;;;;;;;12.07;5.63;;;12.10;99.90;;;;;;6279207;22;20036;-87
2023/10/29 01:01:17;;;;;;;13.23;5.75;;;11.00;99.90;;;;;;6279300;22;20039;-86
2023/10/29 01:03:43;;;;;;;12.63;5.82;;;12.00;99.90;;;;;;6278529;22;20027;-86
2023/10/29 01:06:10;;;;;;;12.63;5.63;;;11.70;99.90;;;;;;6280862;22;20012;-87
2023/10/29 01:08:36;;;;;;;12.50;5.90;;;12.00;99.90;;;;;;6280836;22;20018;-87
2023/10/29 01:11:06;;;;;;;11.10;5.63;;;12.20;99.90;;;;;;6279458;22;20019;-87
2023/10/29 01:13:50;;;;;;;13.52;5.70;;;11.10;99.90;;;;;;6307044;22;20031;-87
2023/10/29 01:16:16;;;;;;;12.50;5.53;;;12.30;99.90;;;;;;6278898;22;20015;-87
2023/10/29 01:18:41;;;;;;;11.93;5.50;;;12.10;99.90;;;;;;6278440;22;20034;-86
2023/10/29 01:21:08;;;;;;;11.68;5.13;;;12.30;99.90;;;;;;6279485;22;20015;-87
2023/10/29 01:23:35;;;;;;;11.90;5.70;;;12.70;99.90;;;;;;6280014;22;20019;-87
2023/10/29 01:26:01;;;;;;;12.00;5.90;;;11.50;99.90;;;;;;6279739;22;20440;-87
2023/10/29 01:28:27;;;;;;;13.10;5.78;;;11.80;99.90;;;;;;6280900;22;20025;-87
2023/10/29 01:30:52;;;;;;;12.85;5.72;;;12.60;99.90;;;;;;6280203;22;20090;-87
2023/10/29 01:33:18;;;;;;;14.50;5.60;;;12.70;99.90;;;;;;6280816;22;20027;-87
2023/10/29 01:35:44;;;;;;;13.50;5.45;;;12.30;99.90;;;;;;6284499;22;20015;-88
2023/10/29 01:38:09;;;;;;;12.15;4.75;;;12.50;99.90;;;;;;6279851;22;20023;-87
2023/10/29 01:40:35;;;;;;;10.65;4.80;;;11.60;99.90;;;;;;6281193;22;20015;-87
2023/10/29 01:43:01;;;;;;;15.90;5.05;;;11.40;99.90;;;;;;6284686;22;20019;-87
2023/10/29 01:45:27;;;;;;;11.13;4.85;;;12.60;99.90;;;;;;6279798;22;20405;-87
2023/10/29 01:47:53;;;;;;;11.27;4.55;;;12.80;99.90;;;;;;6281122;22;20050;-87
2023/10/29 01:50:18;;;;;;;10.25;5.10;;;12.50;99.90;;;;;;6280486;22;20043;-88
2023/10/29 01:52:44;;;;;;;10.50;4.50;;;11.50;99.90;;;;;;6279898;22;20023;-87
2023/10/29 01:55:10;;;;;;;10.50;4.53;;;12.80;99.90;;;;;;6280453;22;20395;-87
2023/10/29 01:57:38;;;;;;;11.20;4.50;;;12.40;99.90;;;;;;6281303;22;20031;-87
2023/10/29 02:00:08;;;;;;;10.60;4.35;;;12.60;99.90;;;;;;6280372;22;20008;-87
2023/10/29 02:02:34;;;;;;;9.70;4.18;;;11.60;99.90;;;;;;6281202;22;20015;-87
2023/10/29 02:05:01;;;;;;;12.18;4.68;;;12.70;99.90;;;;;;6280761;22;20048;-87
2023/10/29 02:07:26;;;;;;;9.52;3.90;;;12.80;99.90;;;;;;6279611;22;20015;-87
2023/10/29 02:09:52;;;;;;;10.65;4.05;;;12.90;99.90;;;;;;6281012;22;20023;-87
2023/10/29 02:12:18;;;;;;;10.63;3.97;;;13.00;99.90;;;;;;6280406;22;20022;-87
2023/10/29 02:14:43;;;;;;;9.85;3.60;;;12.30;99.90;;;;;;6279936;22;20018;-87
2023/10/29 02:17:09;;;;;;;10.02;3.53;;;12.30;99.90;;;;;;6280496;22;20090;-88
2023/10/29 02:19:35;;;;;;;10.02;4.00;;;11.70;99.90;;;;;;6279905;22;20054;-87
2023/10/29 02:22:01;;;;;;;9.43;3.50;;;12.80;99.90;;;;;;6280328;22;20020;-88
2023/10/29 02:24:26;;;;;;;9.10;3.47;;;12.90;99.90;;;;;;6281227;22;20022;-88
2023/10/29 02:26:52;;;;;;;8.48;3.10;;;13.00;99.90;;;;;;6310184;22;20027;-88
2023/10/29 02:29:18;;;;;;;10.07;3.30;;;13.10;99.90;;;;;;6279407;22;20084;-86
2023/10/29 02:31:43;;;;;;;11.13;3.45;;;12.80;99.90;;;;;;6281128;22;20383;-87
2023/10/29 02:34:09;;;;;;;11.48;3.42;;;11.60;99.90;;;;;;6279592;22;20047;-86
2023/10/29 02:36:34;;;;;;;9.98;3.20;;;13.00;99.90;;;;;;6280180;22;20104;-87
2023/10/29 02:39:00;;;;;;;10.65;3.00;;;11.60;99.90;;;;;;6308007;22;20018;-86
2023/10/29 02:41:36;;;;;;;8.02;3.17;;;12.70;99.90;;;;;;6279751;22;20011;-87
2023/10/29 02:44:03;;;;;;;9.02;3.00;;;12.80;99.90;;;;;;6281936;22;20025;-87
2023/10/29 02:46:30;;;;;;;9.98;3.53;;;11.70;99.90;;;;;;6280201;22;20068;-86
2023/10/29 02:48:56;;;;;;;8.65;2.88;;;13.20;99.90;;;;;;6281308;22;20019;-88
2023/10/29 02:51:22;;;;;;;7.82;3.00;;;11.70;99.90;;;;;;6307744;22;20023;-87
2023/10/29 02:53:47;;;;;;;8.18;2.72;;;11.80;99.90;;;;;;6280436;22;20026;-87
2023/10/29 02:56:13;;;;;;;8.13;2.78;;;13.20;99.90;;;;;;6280020;22;20435;-87
2023/10/29 02:58:39;;;;;;;9.32;2.97;;;12.80;99.90;;;;;;6282131;22;20012;-87
2023/10/29 03:01:06;;;;;;;8.38;2.60;;;13.00;99.90;;;;;;6280214;22;20084;-86
2023/10/29 03:03:32;;;;;;;8.15;2.90;;;12.20;99.90;;;;;;6279055;22;20506;-87
2023/10/29 03:05:58;;;;;;;11.25;2.60;;;12.30;99.90;;;;;;6282486;22;20050;-87
2023/10/29 03:08:24;;;;;;;11.00;2.85;;;12.60;99.90;;;;;;6307232;22;20099;-87
2023/10/29 03:10:50;;;;;;;7.50;2.60;;;13.40;99.90;;;;;;6279629;22;20012;-87
2023/10/29 03:13:16;;;;;;;8.50;2.63;;;12.00;99.90;;;;;;6284800;22;20060;-87
2023/10/29 03:15:45;;;;;;;8.02;2.55;;;13.10;99.90;;;;;;6302015;22;20011;-88
2023/10/29 03:18:17;;;;;;;8.88;2.50;;;11.80;99.90;;;;;;6285876;22;20015;-87
2023/10/29 03:20:43;;;;;;;7.10;2.50;;;12.80;99.90;;;;;;6281788;22;20046;-88
2023/10/29 03:23:09;;;;;;;7.45;2.50;;;12.10;99.90;;;;;;6280607;22;20033;-87
2023/10/29 03:28:41;;;;;;;6.82;2.40;;;12.10;99.90;;;;;;6276716;22;20031;-88
2023/10/29 03:31:14;;;;;;;8.80;2.80;;;12.10;99.90;;;;;;6248990;22;20055;-87
2023/10/29 03:33:58;;;;;;;8.23;2.80;;;12.80;99.90;;;;;;6253305;22;20016;-87
2023/10/29 03:36:33;;;;;;;11.73;2.45;;;12.20;99.90;;;;;;6274874;22;20020;-88
2023/10/29 03:39:02;;;;;;;9.73;2.40;;;13.50;99.90;;;;;;6273478;22;20023;-87
2023/10/29 03:41:28;;;;;;;6.88;2.30;;;12.20;99.90;;;;;;6274833;22;20016;-86
2023/10/29 03:43:59;;;;;;;7.97;2.60;;;13.50;99.90;;;;;;6274510;22;20085;-87
2023/10/29 03:46:25;;;;;;;7.50;2.60;;;13.10;99.90;;;;;;6273059;22;20416;-87
2023/10/29 03:48:51;;;;;;;8.18;2.60;;;13.50;99.90;;;;;;6275089;22;20141;-87
2023/10/29 03:51:16;;;;;;;7.72;2.30;;;13.30;99.90;;;;;;6274107;22;20035;-87
2023/10/29 03:53:57;;;;;;;8.07;2.53;;;13.50;99.90;;;;;;6273570;22;20023;-87
2023/10/29 03:56:23;;;;;;;6.30;2.22;;;13.60;99.90;;;;;;6277691;22;20019;-87
2023/10/29 03:58:49;;;;;;;8.35;2.22;;;13.20;99.90;;;;;;6274855;22;20332;-88
2023/10/29 04:01:16;;;;;;;8.20;2.30;;;12.70;99.90;;;;;;6274168;22;20515;-87
2023/10/29 04:03:57;;;;;;;8.10;2.50;;;13.40;99.90;;;;;;6274410;22;20573;-87
2023/10/29 04:06:38;;;;;;;7.97;2.30;;;12.70;99.90;;;;;;6273676;22;20118;-87
2023/10/29 04:09:13;;;;;;;7.15;2.20;;;13.60;99.90;;;;;;6274715;22;20015;-87
2023/10/29 04:11:47;;;;;;;8.35;2.35;;;13.80;99.90;;;;;;6274750;22;20478;-87
2023/10/29 04:14:13;;;;;;;6.85;2.00;;;13.50;99.90;;;;;;6273434;22;20016;-87
2023/10/29 04:16:39;;;;;;;6.43;2.10;;;13.70;99.90;;;;;;6274521;22;20023;-88
2023/10/29 04:19:04;;;;;;;7.75;2.10;;;13.60;99.90;;;;;;6274414;22;20094;-87
2023/10/29 04:21:30;;;;;;;6.53;1.95;;;12.50;99.90;;;;;;6272996;22;20145;-88
2023/10/29 04:23:56;;;;;;;7.18;2.30;;;13.80;99.90;;;;;;6274518;22;20019;-87
2023/10/29 04:26:21;;;;;;;8.75;2.10;;;13.60;99.90;;;;;;6276110;22;20023;-87
2023/10/29 04:28:47;;;;;;;7.68;2.08;;;13.80;99.90;;;;;;6274010;22;20004;-88
2023/10/29 04:31:12;;;;;;;8.80;2.38;;;13.60;99.90;;;;;;6274868;22;20012;-87
2023/10/29 04:33:38;;;;;;;6.50;2.00;;;13.20;99.90;;;;;;6276583;22;20015;-88
2023/10/29 04:36:05;;;;;;;7.57;2.13;;;13.80;99.90;;;;;;6276016;22;20020;-88
2023/10/29 04:38:31;;;;;;;8.35;2.30;;;12.50;99.90;;;;;;6274941;22;20145;-88
2023/10/29 04:40:57;;;;;;;5.55;2.00;;;14.00;99.90;;;;;;6273816;22;20019;-88
2023/10/29 04:43:22;;;;;;;6.55;2.00;;;14.00;99.90;;;;;;6278249;22;20016;-88
2023/10/29 04:45:48;;;;;;;7.78;2.03;;;13.60;99.90;;;;;;6276494;22;20038;-88
2023/10/29 04:48:16;;;;;;;8.75;2.35;;;12.30;99.90;;;;;;6273430;22;20076;-88
2023/10/29 04:50:41;;;;;;;6.47;2.00;;;13.60;99.90;;;;;;6274098;22;20050;-88
2023/10/29 04:53:07;;;;;;;6.90;1.90;;;12.60;99.90;;;;;;6274045;22;20016;-88
2023/10/29 04:55:33;;;;;;;5.85;1.88;;;13.80;99.90;;;;;;6273168;22;20031;-88
2023/10/29 04:58:20;;;;;;;5.78;1.80;;;14.10;99.90;;;;;;6270807;22;20019;-88
2023/10/29 05:00:56;;;;;;;5.63;1.60;;;12.70;99.90;;;;;;6250690;22;20016;-88
2023/10/29 05:03:37;;;;;;;6.00;1.90;;;13.60;99.90;;;;;;6249273;22;20011;-88
2023/10/29 05:06:04;;;;;;;6.13;1.70;;;12.70;99.90;;;;;;6250288;22;20016;-87
2023/10/29 05:08:29;;;;;;;6.63;1.85;;;12.80;99.90;;;;;;6250435;22;20022;-88
2023/10/29 05:10:56;;;;;;;5.00;1.60;;;13.90;99.90;;;;;;6249734;22;20404;-87
2023/10/29 05:13:21;;;;;;;5.53;1.73;;;14.00;99.90;;;;;;6250261;22;20008;-88
2023/10/29 05:15:47;;;;;;;4.65;1.80;;;12.90;99.90;;;;;;6251124;22;20321;-87
2023/10/29 05:18:13;;;;;;;7.43;1.77;;;14.10;99.90;;;;;;6249635;22;20400;-88
2023/10/29 05:20:38;;;;;;;4.90;1.60;;;13.50;99.90;;;;;;6250836;22;20030;-88
2023/10/29 05:23:04;;;;;;;4.43;1.58;;;12.90;99.90;;;;;;6249740;22;20026;-87
2023/10/29 05:25:30;;;;;;;6.65;1.80;;;12.90;99.90;;;;;;6250510;22;20027;-88
2023/10/29 05:27:56;;;;;;;5.95;1.60;;;13.00;99.90;;;;;;6256520;22;20020;-88
2023/10/29 05:30:23;;;;;;;5.57;1.70;;;13.30;99.90;;;;;;6255506;22;20119;-88
2023/10/29 05:32:48;;;;;;;4.10;1.60;;;14.10;99.90;;;;;;6250768;22;20008;-87
2023/10/29 05:35:14;;;;;;;5.35;1.60;;;14.20;99.90;;;;;;6250049;22;20494;-88
2023/10/29 05:37:40;;;;;;;7.75;1.75;;;12.80;99.90;;;;;;6277421;22;20452;-87
2023/10/29 05:40:09;;;;;;;5.72;1.60;;;13.70;99.90;;;;;;6252091;22;20020;-87
2023/10/29 05:42:41;;;;;;;6.45;1.80;;;12.80;99.90;;;;;;6253713;22;20027;-88
2023/10/29 05:45:07;;;;;;;5.22;1.75;;;12.70;99.90;;;;;;6251178;22;20077;-87
2023/10/29 05:47:33;;;;;;;5.53;1.50;;;12.70;99.90;;;;;;6250789;22;20452;-87
2023/10/29 05:49:58;;;;;;;5.28;1.60;;;13.80;99.90;;;;;;6250567;22;20015;-88
2023/10/29 05:54:50;;;;;;;10.98;2.40;;;12.80;99.90;;;;;;6276641;22;20031;-87
2023/10/29 05:57:16;;;;;;;13.10;2.42;;;13.70;99.90;;;;;;6250395;22;20015;-88
2023/10/29 05:59:42;;;;;;;9.23;1.92;;;13.90;99.90;;;;;;6250321;22;20079;-87
2023/10/29 06:02:09;;;;;;;6.32;1.60;;;13.30;99.90;;;;;;6250919;22;20019;-88
2023/10/29 06:04:35;;;;;;;4.97;1.50;;;12.90;99.90;;;;;;6251000;22;20157;-87
2023/10/29 06:07:01;;;;;;;7.88;1.95;;;12.30;99.90;;;;;;6250357;22;20039;-88
2023/10/29 06:09:52;;;;;;;9.27;1.88;;;12.70;99.90;;;;;;6268993;22;20012;-87
2023/10/29 06:12:30;;;;;;;3.97;1.50;;;12.70;99.90;;;;;;6308734;22;20081;-88
2023/10/29 06:14:58;;;;;;;5.40;1.67;;;14.10;99.90;;;;;;6321452;22;19995;-88
2023/10/29 06:17:24;;;;;;;8.05;2.08;;;12.80;99.90;;;;;;6334977;22;20027;-87
2023/10/29 06:19:50;;;;;;;6.22;1.60;;;13.50;99.90;;;;;;6312527;22;20016;-84
2023/10/29 06:22:15;;;;;;;5.63;1.42;;;14.10;99.90;;;;;;6306018;22;20008;-85
2023/10/29 06:24:41;;;;;;;6.90;1.55;;;13.80;99.90;;;;;;6306585;22;20015;-84
2023/10/29 06:27:07;;;;;;;6.85;1.52;;;14.30;99.90;;;;;;6307857;22;20047;-84
2023/10/29 06:29:38;;;;;;;4.50;1.40;;;13.80;99.90;;;;;;6307698;22;20507;-86
2023/10/29 06:32:04;;;;;;;7.88;2.00;;;12.90;99.90;;;;;;6305860;22;20039;-86
2023/10/29 06:34:29;;;;;;;6.40;1.60;;;12.80;99.90;;;;;;6304745;22;20027;-84
2023/10/29 06:37:16;;;;;;;5.72;1.70;;;13.20;99.90;;;;;;6307604;22;20048;-88
2023/10/29 06:39:41;;;;;;;4.80;1.40;;;13.80;99.90;;;;;;6304152;22;20023;-87
2023/10/29 06:42:06;;;;;;;4.35;1.50;;;13.20;99.90;;;;;;6307512;22;20008;-87
2023/10/29 06:44:32;;;;;;;3.92;1.35;;;12.70;99.90;;;;;;6307760;22;20065;-87
2023/10/29 06:46:58;;;;;;;5.65;1.50;;;13.10;99.90;;;;;;6307349;22;20069;-88
2023/10/29 06:49:23;;;;;;;6.15;1.45;;;13.40;99.90;;;;;;6306087;22;20034;-87
2023/10/29 06:51:49;;;;;;;7.22;1.60;;;13.90;99.90;;;;;;6308368;22;20038;-87
2023/10/29 06:54:15;;;;;;;6.10;1.58;;;13.00;99.90;;;;;;6307073;22;20015;-88
2023/10/29 06:56:40;;;;;;;4.35;1.42;;;13.40;99.90;;;;;;6306173;22;20046;-88
2023/10/29 06:59:06;;;;;;;6.03;1.80;;;13.90;99.90;;;;;;6307649;22;20015;-88
2023/10/29 07:01:32;;;;;;;4.03;1.50;;;12.70;99.90;;;;;;6317440;22;20390;-88
2023/10/29 07:03:57;;;;;;;5.97;1.60;;;12.80;99.90;;;;;;6307095;22;20030;-87
2023/10/29 07:06:23;;;;;;;4.68;1.42;;;13.60;99.90;;;;;;6307209;22;20007;-87
2023/10/29 07:08:48;;;;;;;4.05;1.40;;;12.90;99.90;;;;;;6309719;22;20024;-87
2023/10/29 07:11:14;;;;;;;4.90;1.40;;;13.60;99.90;;;;;;6312137;22;20046;-87
2023/10/29 07:13:41;;;;;;;4.10;1.40;;;13.00;99.90;;;;;;6312351;22;20042;-88
2023/10/29 07:16:06;;;;;;;4.05;1.40;;;14.20;99.90;;;;;;6311474;22;20015;-87
2023/10/29 07:18:32;;;;;;;5.78;1.40;;;14.40;99.90;;;;;;6312045;22;20471;-87
2023/10/29 07:20:58;;;;;;;2.55;1.38;;;14.40;99.90;;;;;;6312601;22;20069;-87
2023/10/29 07:23:24;;;;;;;6.00;1.60;;;14.10;99.90;;;;;;6311253;22;20010;-87
2023/10/29 07:25:50;;;;;;;5.93;1.33;;;13.70;99.90;;;;;;6312471;22;20064;-87
2023/10/29 07:28:17;;;;;;;4.72;1.35;;;13.20;99.90;;;;;;6327189;22;20015;-87
2023/10/29 07:30:42;;;;;;;5.63;1.58;;;14.40;99.90;;;;;;6312320;22;20387;-87
2023/10/29 07:33:12;;;;;;;3.33;1.38;;;14.60;99.90;;;;;;6314800;22;20094;-89
2023/10/29 07:35:39;;;;;;;5.85;1.70;;;14.30;99.90;;;;;;6340055;22;20323;-87
2023/10/29 07:38:07;;;;;;;8.02;1.70;;;13.30;99.90;;;;;;6311308;22;20018;-87
2023/10/29 07:40:33;;;;;;;16.98;7.03;;;14.30;99.90;;;;;;6314623;22;20011;-87
2023/10/29 07:42:58;;;;;;;5.22;1.60;;;14.10;99.90;;;;;;6311862;22;20049;-85
2023/10/29 07:45:24;;;;;;;4.20;1.40;;;13.20;99.90;;;;;;6310850;22;20381;-85
2023/10/29 07:47:50;;;;;;;7.20;2.28;;;14.60;99.90;;;;;;6313149;22;20018;-85
2023/10/29 07:50:16;;;;;;;8.52;3.20;;;14.20;99.90;;;;;;6311394;22;20026;-87
2023/10/29 07:52:42;;;;;;;6.40;1.70;;;13.10;99.90;;;;;;6312416;22;20018;-86
2023/10/29 07:55:09;;;;;;;7.13;2.13;;;14.50;99.90;;;;;;6313267;22;20342;-88
2023/10/29 07:57:35;;;;;;;8.85;3.08;;;13.20;99.90;;;;;;6313134;22;20011;-87
2023/10/29 08:00:03;;;;;;;10.90;4.55;;;14.40;99.90;;;;;;6314972;22;20397;-86
2023/10/29 08:02:30;;;;;;;7.80;1.92;;;14.30;99.90;;;;;;6337968;22;20443;-85
2023/10/29 08:04:56;;;;;;;5.88;1.60;;;14.10;99.90;;;;;;6310366;22;20446;-85
2023/10/29 08:07:21;;;;;;;4.55;1.83;;;13.20;99.90;;;;;;6337915;22;20019;-85
2023/10/29 08:09:47;;;;;;;7.28;1.77;;;13.90;99.90;;;;;;6311179;22;20434;-85
2023/10/29 08:12:14;;;;;;;7.10;1.42;;;14.10;99.90;;;;;;6337823;22;20450;-85
2023/10/29 08:14:39;;;;;;;12.02;3.38;;;13.10;99.90;;;;;;6310510;22;20050;-85
2023/10/29 08:17:05;;;;;;;7.60;3.30;;;13.50;99.90;;;;;;6310724;22;20324;-85
2023/10/29 08:19:31;;;;;;;8.35;3.13;;;13.10;99.90;;;;;;6309201;22;20018;-85
2023/10/29 08:21:56;;;;;;;6.30;1.48;;;13.00;99.90;;;;;;6338039;22;20015;-85
2023/10/29 08:24:22;;;;;;;10.88;5.18;;;13.00;99.90;;;;;;6310136;22;20064;-85
2023/10/29 08:27:08;;;;;;;10.18;3.22;;;14.20;99.90;;;;;;6309555;22;20010;-85
2023/10/29 08:29:49;;;;;;;7.95;2.30;;;13.00;99.90;;;;;;6307611;22;20021;-85
2023/10/29 08:32:21;;;;;;;7.88;2.28;;;12.90;99.90;;;;;;6312155;22;20105;-85
2023/10/29 08:35:02;;;;;;;5.40;1.60;;;14.30;99.90;;;;;;6312289;22;20011;-86
2023/10/29 08:37:27;;;;;;;6.03;1.48;;;13.10;99.90;;;;;;6308896;22;20014;-86
2023/10/29 08:39:57;;;;;;;8.00;1.73;;;13.20;99.90;;;;;;6310103;22;20377;-86
2023/10/29 08:42:22;;;;;;;9.05;2.83;;;14.40;99.90;;;;;;6309725;22;20015;-86
2023/10/29 08:44:48;;;;;;;7.25;2.03;;;14.10;99.90;;;;;;6310296;22;20022;-86
2023/10/29 08:47:14;;;;;;;7.43;1.67;;;14.40;99.90;;;;;;6308952;22;20117;-86
2023/10/29 08:49:39;;;;;;;8.18;1.90;;;14.70;99.90;;;;;;6310424;22;20362;-86
2023/10/29 08:52:05;;;;;;;2.60;1.08;;;14.30;99.90;;;;;;6310227;22;20030;-86
2023/10/29 08:54:31;;;;;;;4.53;1.55;;;13.40;99.90;;;;;;6308944;22;20015;-87
2023/10/29 08:56:56;;;;;;;11.23;2.60;;;13.50;99.90;;;;;;6310004;22;20072;-87
2023/10/29 08:59:22;;;;;;;6.43;1.40;;;13.50;99.90;;;;;;6309120;22;20050;-86
2023/10/29 09:01:53;;;;;;;5.55;1.70;;;14.30;99.90;;;;;;6309017;22;20141;-85
2023/10/29 09:04:20;;;;;;;5.07;1.67;;;13.90;99.90;;;;;;6309101;22;20025;-85
2023/10/29 09:06:49;;;;;;;4.97;1.50;;;13.60;99.90;;;;;;6309995;22;20331;-86
2023/10/29 09:09:14;;;;;;;9.13;1.95;;;14.70;99.90;;;;;;6308076;22;20038;-86
2023/10/29 09:11:43;;;;;;;6.47;1.73;;;13.90;99.90;;;;;;6338728;22;20019;-87
2023/10/29 09:14:11;;;;;;;7.53;2.17;;;13.80;99.90;;;;;;6341512;22;20460;-87
2023/10/29 09:16:36;;;;;;;5.25;1.23;;;13.80;99.90;;;;;;6315401;22;20415;-86
2023/10/29 09:19:03;;;;;;;6.80;1.83;;;14.80;99.90;;;;;;6314081;22;20046;-87
2023/10/29 09:21:31;;;;;;;6.68;1.55;;;13.70;99.90;;;;;;6312973;22;20019;-87
2023/10/29 09:23:56;;;;;;;6.72;1.67;;;13.70;99.90;;;;;;6322096;22;20039;-88
2023/10/29 09:26:22;;;;;;;4.60;1.30;;;14.50;99.90;;;;;;6313837;22;20015;-90
2023/10/29 09:28:48;;;;;;;5.93;2.13;;;14.50;99.90;;;;;;6311785;22;20343;-90
2023/10/29 09:31:30;;;;;;;6.95;1.98;;;14.90;99.90;;;;;;6309929;22;20440;-90
2023/10/29 09:33:56;;;;;;;6.35;1.75;;;13.90;99.90;;;;;;6310698;22;20011;-91
2023/10/29 09:36:22;;;;;;;11.43;2.10;;;15.10;99.90;;;;;;6309274;22;20046;-86
2023/10/29 09:38:48;;;;;;;5.20;1.30;;;14.80;99.90;;;;;;6310375;22;20029;-88
2023/10/29 09:41:17;;;;;;;8.85;1.92;;;14.20;99.90;;;;;;6310587;22;20038;-86
2023/10/29 09:43:43;;;;;;;8.10;2.00;;;14.80;99.90;;;;;;6337228;22;20089;-86
2023/10/29 09:46:10;;;;;;;7.75;1.83;;;15.30;99.90;;;;;;6311677;22;20007;-87
2023/10/29 09:48:37;;;;;;;10.13;1.95;;;14.00;99.90;;;;;;6312299;22;20019;-88
2023/10/29 09:51:06;;;;;;;7.05;1.73;;;14.00;99.90;;;;;;6311733;22;20015;-86
2023/10/29 09:53:39;;;;;;;7.90;1.83;;;14.40;99.90;;;;;;6341949;22;20337;-87
2023/10/29 09:56:09;;;;;;;8.57;1.70;;;14.00;99.90;;;;;;6314405;22;20010;-87
2023/10/29 09:58:38;;;;;;;7.60;1.50;;;14.10;99.90;;;;;;6315819;22;20018;-87
2023/10/29 10:01:04;;;;;;;8.40;2.20;;;14.30;99.90;;;;;;6313375;22;20026;-86
2023/10/29 10:03:31;;;;;;;6.72;1.70;;;14.40;99.90;;;;;;6313968;22;20022;-86
2023/10/29 10:06:09;;;;;;;11.32;3.40;;;15.30;99.90;;;;;;6315498;22;20470;-85
2023/10/29 10:08:41;;;;;;;9.75;1.80;;;14.00;99.90;;;;;;6312305;22;20342;-87
2023/10/29 10:11:23;;;;;;;8.82;1.90;;;15.00;99.90;;;;;;6307201;22;20023;-86
2023/10/29 10:13:49;;;;;;;7.95;1.55;;;15.30;99.90;;;;;;6307618;22;20019;-86
2023/10/29 10:16:15;;;;;;;12.93;3.78;;;14.30;99.90;;;;;;6306908;22;20481;-87
2023/10/29 10:18:58;;;;;;;11.40;4.15;;;15.30;99.90;;;;;;6305878;22;20024;-85
2023/10/29 10:21:27;;;;;;;7.63;2.47;;;14.20;99.90;;;;;;6306386;22;20015;-87
2023/10/29 10:24:11;;;;;;;9.65;2.17;;;15.30;99.90;;;;;;6306386;22;20458;-85
2023/10/29 10:26:37;;;;;;;;;;;15.40;99.90;;;;;;6306585;22;20019;-88
2023/10/29 10:29:05;;;;;;;19.20;7.63;;;14.40;99.90;;;;;;6308478;22;20007;-87
2023/10/29 10:31:33;;;;;;;27.65;12.70;;;14.30;99.90;;;;;;6306526;22;20026;-87
2023/10/29 10:34:13;;;;;;;10.32;2.40;;;15.00;99.90;;;;;;6307144;22;20011;-89
2023/10/29 10:36:40;;;;;;;15.73;5.25;;;15.00;99.90;;;;;;6307789;22;20019;-89
2023/10/29 10:39:06;;;;;;;11.77;4.22;;;14.60;99.90;;;;;;6307505;22;20406;-88
2023/10/29 10:42:04;;;;;;;27.75;14.18;;;14.80;99.90;;;;;;6307056;22;20034;-89
2023/10/29 10:44:29;;;;;;;7.38;1.83;;;14.80;99.90;;;;;;6309520;22;20459;-90
2023/10/29 10:46:59;;;;;;;21.77;10.50;;;14.80;99.90;;;;;;6306755;22;20019;-92
2023/10/29 10:49:26;;;;;;;19.52;7.70;;;16.10;99.90;;;;;;6307171;22;20018;-90
2023/10/29 10:51:59;;;;;;;11.45;2.40;;;15.50;99.90;;;;;;6310225;22;20508;-90
2023/10/29 10:54:26;;;;;;;19.83;7.57;;;15.80;99.90;;;;;;6306737;22;20011;-89
2023/10/29 10:56:54;;;;;;;10.95;2.38;;;15.20;99.90;;;;;;6307432;22;20019;-91
2023/10/29 10:59:21;;;;;;;8.18;1.90;;;15.50;99.90;;;;;;6307548;22;20023;-91
2023/10/29 11:01:48;;;;;;;13.02;4.35;;;15.50;99.90;;;;;;6306120;22;20018;-91
2023/10/29 11:04:15;;;;;;;9.77;2.40;;;14.80;99.90;;;;;;6308224;22;20046;-91
2023/10/29 11:06:42;;;;;;;12.57;3.00;;;14.80;99.90;;;;;;6307181;22;20043;-90
2023/10/29 11:09:13;;;;;;;21.15;9.70;;;14.70;99.90;;;;;;6301283;22;20015;-90
2023/10/29 11:11:44;;;;;;;8.98;2.00;;;14.70;99.90;;;;;;6275881;22;20019;-90
2023/10/29 11:14:14;;;;;;;10.23;3.95;;;15.80;99.90;;;;;;6277022;22;20019;-90
2023/10/29 11:16:55;;;;;;;10.00;3.00;;;14.60;99.90;;;;;;6275260;22;20030;-90
2023/10/29 11:19:33;;;;;;;9.27;1.98;;;14.70;99.90;;;;;;6275413;22;20018;-91
2023/10/29 11:22:22;;;;;;;8.73;2.55;;;15.10;99.90;;;;;;6274628;22;20019;-92
2023/10/29 11:25:08;;;;;;;8.40;2.03;;;14.90;99.90;;;;;;6276430;22;20021;-91
2023/10/29 11:27:48;;;;;;;10.23;2.42;;;16.10;99.90;;;;;;6275504;22;20020;-90
2023/10/29 11:30:20;;;;;;;5.80;1.52;;;15.20;99.90;;;;;;6275225;22;20016;-89
2023/10/29 11:33:09;;;;;;;9.70;2.35;;;15.20;99.90;;;;;;6276104;22;20023;-90
2023/10/29 11:35:36;;;;;;;8.70;2.45;;;15.40;99.90;;;;;;6285473;22;20091;-89
2023/10/29 11:38:34;;;;;;;11.15;2.10;;;15.80;99.90;;;;;;6290887;22;20019;-89
2023/10/29 11:40:59;;;;;;;7.13;1.65;;;15.40;99.90;;;;;;6277586;22;20026;-89
2023/10/29 11:43:25;;;;;;;9.05;1.85;;;15.40;99.90;;;;;;6277132;22;20098;-88
2023/10/29 11:46:10;;;;;;;9.43;2.67;;;16.10;99.90;;;;;;6276520;22;20336;-89
2023/10/29 11:49:04;;;;;;;6.63;1.50;;;15.70;99.90;;;;;;6279144;22;20448;-95
2023/10/29 11:51:29;;;;;;;7.88;1.67;;;16.00;99.90;;;;;;6273855;22;20081;-92
2023/10/29 11:54:02;;;;;;;6.72;1.80;;;16.10;99.90;;;;;;6275635;22;20027;-90
2023/10/29 11:56:32;;;;;;;6.10;1.90;;;16.20;99.90;;;;;;6274857;22;20016;-91
2023/10/29 11:59:05;;;;;;;8.82;1.83;;;15.80;99.90;;;;;;6275770;22;20024;-91
2023/10/29 12:01:31;;;;;;;9.93;2.58;;;16.20;99.90;;;;;;6274319;22;20095;-89
2023/10/29 12:03:59;;;;;;;8.48;1.88;;;17.00;99.90;;;;;;6273084;22;20161;-90
2023/10/29 12:06:39;;;;;;;8.48;2.00;;;15.70;99.90;;;;;;6273527;22;20133;-88
2023/10/29 12:09:18;;;;;;;6.57;1.60;;;15.60;99.90;;;;;;6283504;22;20094;-88
2023/10/29 12:11:49;;;;;;;8.25;2.65;;;15.30;99.90;;;;;;6309803;22;20015;-88
2023/10/29 12:14:37;;;;;;;10.30;3.53;;;15.30;99.90;;;;;;6312698;22;20011;-88
2023/10/29 12:17:10;;;;;;;10.02;1.90;;;15.50;99.90;;;;;;6310565;22;20018;-86
2023/10/29 12:19:36;;;;;;;10.48;2.30;;;15.20;99.90;;;;;;6308926;22;20015;-87
2023/10/29 12:22:15;;;;;;;7.15;1.65;;;15.80;99.90;;;;;;6311169;22;20098;-87
2023/10/29 12:24:41;;;;;;;5.32;1.30;;;15.40;99.90;;;;;;6310181;22;20454;-87
2023/10/29 12:27:11;;;;;;;6.20;1.40;;;15.90;99.90;;;;;;6316971;22;20022;-86
2023/10/29 12:29:37;;;;;;;6.00;1.83;;;15.40;99.90;;;;;;6326343;22;20049;-87
2023/10/29 12:32:18;;;;;;;23.70;16.10;;;14.90;99.90;;;;;;6312392;22;20026;-86
2023/10/29 12:34:54;;;;;;;6.47;1.70;;;14.90;99.90;;;;;;6311620;22;20085;-87
2023/10/29 12:37:27;;;;;;;8.70;2.17;;;14.90;99.90;;;;;;6309867;22;20019;-88
2023/10/29 12:39:56;;;;;;;6.95;1.60;;;15.70;99.90;;;;;;6309820;22;20019;-87
2023/10/29 12:42:40;;;;;;;8.02;1.90;;;15.60;99.90;;;;;;6310032;22;20011;-87
2023/10/29 12:45:08;;;;;;;11.02;3.30;;;14.80;99.90;;;;;;6310838;22;20455;-88
2023/10/29 12:47:34;;;;;;;9.98;1.90;;;14.70;99.90;;;;;;6309906;22;20025;-88
2023/10/29 12:50:04;;;;;;;8.65;2.10;;;15.80;99.90;;;;;;6310274;22;20046;-88
2023/10/29 12:52:30;;;;;;;11.18;1.92;;;14.70;99.90;;;;;;6309785;22;20029;-87
2023/10/29 12:54:57;;;;;;;9.98;1.85;;;15.60;99.90;;;;;;6309342;22;20022;-84
2023/10/29 12:57:23;;;;;;;8.88;1.75;;;15.00;99.90;;;;;;6309533;22;20015;-84
2023/10/29 12:59:49;;;;;;;9.30;2.10;;;15.80;99.90;;;;;;6309809;22;20023;-88